Flight Track Log - Related Links

Times and Time Zones

All times are in EDT time to prevent confusion due to time zone crossing. See the SWA3499 flight status page for this flight to view local times or setup timezone preferences in your user account.

Time Position Orientation Groundspeed Altitude Reporting Facility
EDT Latitude Longitude Course Direction KTS MPH feet Rate Location/Type
Fri 11:58:24 PM 39.9167 -104.6833 346° North 179 206 6,900  Level Denver TRACON
Fri 11:59:12 PM 39.9667 -104.7000 346° North 214 246 8,200 2,187 Climbing Denver TRACON
Sat 12:00:11 AM 40.0356 -104.7289 342° North 263 303 10,800 2,300 Climbing Denver Center
Sat 12:01:12 AM 40.1200 -104.7650 342° North 323 372 12,800 2,607 Climbing Denver Center
Sat 12:02:13 AM 40.2136 -104.8097 340° North 355 409 16,100 3,049 Climbing Denver Center
Sat 12:03:14 AM 40.3192 -104.8600 340° North 372 428 19,000 2,557 Climbing Denver Center
Sat 12:04:15 AM 40.4056 -104.9006 340° North 381 438 21,300 2,164 Climbing Denver Center
Sat 12:05:16 AM 40.5097 -104.9508 340° North 400 460 23,400 2,311 Climbing Denver Center
Sat 12:06:17 AM 40.5836 -105.1022 303° West 408 470 26,000 2,213 Climbing Denver Center
Sat 12:07:18 AM 40.6458 -105.2292 303° West 410 472 27,900 1,770 Climbing Denver Center
Sat 12:08:19 AM 40.7061 -105.3628 301° West 420 483 29,600 1,820 Climbing Denver Center
Sat 12:09:20 AM 40.7692 -105.4972 302° West 430 495 31,600 1,721 Climbing Denver Center
Sat 12:10:21 AM 40.8306 -105.6331 301° West 430 495 33,100 1,623 Climbing Denver Center
Sat 12:11:22 AM 40.8925 -105.7675 301° West 430 495 34,900 1,574 Climbing Denver Center
Sat 12:12:23 AM 40.9528 -105.9003 301° West 427 491 36,300 1,426 Climbing Denver Center
Sat 12:13:24 AM 41.0131 -106.0336 301° West 426 490 37,800 1,230 Climbing Denver Center
Sat 12:14:25 AM 41.0725 -106.1644 301° West 419 482 38,800 934 Climbing Denver Center
Sat 12:15:26 AM 41.1392 -106.3142 301° West 423 487 39,700 590 Climbing Denver Center
Sat 12:16:27 AM 41.1944 -106.4417 300° West 421 484 40,000 148 Climbing Denver Center
Sat 12:17:28 AM 41.2633 -106.5925 301° West 422 486 40,000  Level Denver Center
Sat 12:18:29 AM 41.3219 -106.7228 301° West 425 489 40,000  Level Denver Center
Sat 12:19:30 AM 41.3792 -106.8536 300° West 426 490 40,000  Level Denver Center
Sat 12:20:31 AM 41.4447 -107.0022 301° West 425 489 40,000  Level Denver Center
Sat 12:21:32 AM 41.5006 -107.1303 300° West 421 484 40,000  Level Denver Center
Sat 12:22:32 AM 41.5542 -107.2589 299° West 420 483 40,000  Level Denver Center
Sat 12:23:33 AM 41.6192 -107.4075 300° West 419 482 40,000  Level Denver Center
Sat 12:24:34 AM 41.6744 -107.5353 300° West 417 480 40,000  Level Denver Center
Sat 12:25:35 AM 41.7281 -107.6614 300° West 412 474 40,000  Level Denver Center
Sat 12:26:36 AM 41.7900 -107.8072 300° West 407 468 40,000  Level Denver Center
Sat 12:27:37 AM 41.8442 -107.9322 300° West 405 466 40,000  Level Denver Center
Sat 12:28:38 AM 41.9044 -108.0775 299° West 403 464 40,000  Level Denver Center
Sat 12:29:39 AM 41.9567 -108.2000 300° West 399 459 40,000  Level Denver Center
Sat 12:30:40 AM 42.0081 -108.3247 299° West 397 457 40,000  Level Denver Center
Sat 12:31:42 AM 42.0706 -108.4714 300° West 402 463 40,000  Level Salt Lake Center
Sat 12:32:44 AM 42.1228 -108.5975 299° West 402 463 40,000  Level Salt Lake Center
Sat 12:33:45 AM 42.1836 -108.7453 299° West 403 464 40,000  Level Salt Lake Center
Sat 12:34:46 AM 42.2344 -108.8722 298° West 403 464 40,000  Level Salt Lake Center
Sat 12:35:47 AM 42.2958 -109.0206 299° West 404 465 40,000  Level Salt Lake Center
Sat 12:36:49 AM 42.3481 -109.1492 299° West 406 467 40,000  Level Salt Lake Center
Sat 12:37:50 AM 42.3994 -109.2792 298° West 408 470 40,000  Level Salt Lake Center
Sat 12:38:51 AM 42.4606 -109.4286 299° West 409 471 40,000  Level Salt Lake Center
Sat 12:39:52 AM 42.5125 -109.5586 298° West 409 471 40,000  Level Salt Lake Center
Sat 12:40:54 AM 42.5725 -109.7069 299° West 408 470 40,000  Level Salt Lake Center
Sat 12:41:55 AM 42.6231 -109.8339 298° West 404 465 40,000  Level Salt Lake Center
Sat 12:42:56 AM 42.6728 -109.9608 298° West 402 463 40,000  Level Salt Lake Center
Sat 12:43:57 AM 42.7297 -110.1064 298° West 400 460 40,000  Level Salt Lake Center
Sat 12:44:59 AM 42.7800 -110.2306 299° West 399 459 40,000  Level Salt Lake Center
Sat 12:46:00 AM 42.8369 -110.3789 298° West 398 458 40,000  Level Salt Lake Center
Sat 12:47:01 AM 42.8861 -110.5056 298° West 397 457 40,000  Level Salt Lake Center
Sat 12:48:02 AM 42.9364 -110.6317 299° West 397 457 40,000  Level Salt Lake Center
Sat 12:49:03 AM 42.9944 -110.7875 297° West 407 468 40,000  Level Salt Lake Center
Sat 12:50:05 AM 43.0458 -110.9192 298° West 409 471 40,000  Level Salt Lake Center
Sat 12:51:06 AM 43.0958 -111.0508 298° West 408 470 40,000  Level Salt Lake Center
Sat 12:52:07 AM 43.1550 -111.2061 298° West 409 471 40,000  Level Salt Lake Center
Sat 12:53:08 AM 43.2056 -111.3431 297° West 414 476 40,000  Level Salt Lake Center
Sat 12:54:09 AM 43.2647 -111.4992 298° West 414 476 40,000  Level Salt Lake Center
Sat 12:55:11 AM 43.3150 -111.6317 298° West 414 476 40,000  Level Salt Lake Center
Sat 12:56:12 AM 43.3622 -111.7608 297° West 405 466 40,000  Level Salt Lake Center
Sat 12:57:13 AM 43.4189 -111.9131 297° West 401 461 40,000  Level Salt Lake Center
Sat 12:58:14 AM 43.4672 -112.0444 297° West 401 461 40,000  Level Salt Lake Center
Sat 12:59:15 AM 43.5161 -112.1742 297° West 401 461 40,000  Level Salt Lake Center
Sat 01:00:16 AM 43.5725 -112.3294 297° West 401 461 40,000  Level Salt Lake Center
Sat 01:01:18 AM 43.6194 -112.4631 296° West 402 463 40,000  Level Salt Lake Center
Sat 01:02:19 AM 43.6686 -112.5964 297° West 403 464 40,000  Level Salt Lake Center
Sat 01:03:20 AM 43.7239 -112.7525 296° West 403 464 40,000  Level Salt Lake Center
Sat 01:04:21 AM 43.7728 -112.8878 297° West 409 471 40,000  Level Salt Lake Center
Sat 01:05:22 AM 43.8292 -113.0461 296° West 409 471 40,000  Level Salt Lake Center
Sat 01:06:23 AM 43.8811 -113.1797 298° West 409 471 40,000  Level Salt Lake Center
Sat 01:07:24 AM 43.9358 -113.3092 300° West 407 468 40,000  Level Salt Lake Center
Sat 01:08:25 AM 43.9981 -113.4589 300° West 406 467 40,000  Level Salt Lake Center
Sat 01:09:26 AM 44.0522 -113.5878 300° West 405 466 40,000  Level Salt Lake Center
Sat 01:10:27 AM 44.1064 -113.7164 300° West 404 465 40,000  Level Salt Lake Center
Sat 01:11:28 AM 44.1678 -113.8653 300° West 402 463 40,000  Level Salt Lake Center
Sat 01:12:29 AM 44.2181 -113.9950 298° West 400 460 40,000  Level Salt Lake Center
Sat 01:13:31 AM 44.2747 -114.1286 301° West 400 460 40,000  Level Salt Lake Center
Sat 01:14:32 AM 44.3292 -114.2631 300° West 400 460 40,000  Level Salt Lake Center
Sat 01:15:33 AM 44.3844 -114.3975 300° West 400 460 40,000  Level Salt Lake Center
Sat 01:16:34 AM 44.4381 -114.5322 299° West 400 460 40,000  Level Salt Lake Center
Sat 01:17:35 AM 44.4928 -114.6697 299° West 400 460 40,000  Level Salt Lake Center
Sat 01:18:36 AM 44.5469 -114.8067 299° West 401 461 40,000  Level Salt Lake Center
Sat 01:19:37 AM 44.6117 -114.9708 299° West 401 461 40,000  Level Salt Lake Center
Sat 01:20:38 AM 44.6653 -115.1069 299° West 401 461 40,000  Level Salt Lake Center
Sat 01:21:39 AM 44.7192 -115.2442 299° West 401 461 40,000  Level Salt Lake Center
Sat 01:22:40 AM 44.7731 -115.3806 299° West 401 461 40,000  Level Salt Lake Center
Sat 01:23:41 AM 44.8258 -115.5189 298° West 402 463 40,000  Level Salt Lake Center
Sat 01:24:42 AM 44.8781 -115.6542 299° West 401 461 40,000  Level Salt Lake Center
Sat 01:25:43 AM 44.9303 -115.7900 299° West 400 460 40,000  Level Salt Lake Center
Sat 01:26:44 AM 44.9817 -115.9247 298° West 397 457 40,000  Level Salt Lake Center
Sat 01:27:45 AM 45.0328 -116.0589 298° West 396 456 40,000  Level Salt Lake Center
Sat 01:28:46 AM 45.0947 -116.2214 298° West 395 455 40,000  Level Salt Lake Center
Sat 01:29:47 AM 45.1447 -116.3550 298° West 391 450 40,000  Level Salt Lake Center
Sat 01:30:48 AM 45.1956 -116.4917 298° West 391 450 40,000  Level Salt Lake Center
Sat 01:31:49 AM 45.2467 -116.6250 299° West 391 450 40,000  Level Salt Lake Center
Sat 01:32:49 AM 45.2958 -116.7589 298° West 389 448 40,000  Level Salt Lake Center
Sat 01:33:50 AM 45.3442 -116.8933 297° West 387 445 40,000  Level Salt Lake Center
Sat 01:34:51 AM 45.3953 -117.0261 299° West 387 445 40,000  Level Salt Lake Center
Sat 01:35:52 AM 45.4436 -117.1606 297° West 384 442 40,000  Level Salt Lake Center
Sat 01:36:53 AM 45.4914 -117.2958 297° West 384 442 40,000  Level Salt Lake Center
Sat 01:37:54 AM 45.5411 -117.4300 298° West 384 442 40,000  Level Salt Lake Center
Sat 01:38:55 AM 45.5906 -117.5650 298° West 384 442 40,000  Level Salt Lake Center
Sat 01:39:56 AM 45.6481 -117.7297 297° West 384 442 40,000  Level Salt Lake Center
Sat 01:40:57 AM 45.6897 -117.8453 297° West 385 443 40,000  Level Salt Lake Center
Sat 01:41:58 AM 45.7383 -117.9836 297° West 389 448 40,000  Level Salt Lake Center
Sat 01:42:58 AM 45.7889 -118.1247 297° West 394 453 40,000  Level Salt Lake Center
Sat 01:44:16 AM 45.8556 -118.3150 297° West 392 451 40,000  Level Seattle Center
Sat 01:45:16 AM 45.9036 -118.4539 296° West 392 451 40,000  Level Seattle Center
Sat 01:46:17 AM 45.9531 -118.5975 296° West 392 451 40,000  Level Seattle Center
Sat 01:47:17 AM 46.0014 -118.7375 296° West 392 451 40,000  Level Seattle Center
Sat 01:48:18 AM 46.0489 -118.8778 296° West 392 451 40,000  Level Seattle Center
Sat 01:49:18 AM 46.0958 -119.0186 296° West 392 451 40,000  Level Seattle Center
Sat 01:50:18 AM 46.1444 -119.1567 297° West 392 451 40,000  Level Seattle Center
Sat 01:51:19 AM 46.1908 -119.2986 295° West 392 451 40,000  Level Seattle Center
Sat 01:52:19 AM 46.2389 -119.4403 296° West 392 451 40,000  Level Seattle Center
Sat 01:53:20 AM 46.2864 -119.5839 296° West 394 453 40,000 -149 Level Seattle Center
Sat 01:54:20 AM 46.3333 -119.7233 296° West 393 452 39,700 -645 Descending Seattle Center
Sat 01:55:21 AM 46.3811 -119.8650 296° West 392 451 38,700 -992 Descending Seattle Center
Sat 01:56:21 AM 46.4275 -120.0083 295° West 396 456 37,700 -2,083 Descending Seattle Center
Sat 01:57:22 AM 46.4814 -120.1747 295° West 387 445 34,500 -2,876 Descending Seattle Center
Sat 01:58:22 AM 46.5275 -120.3172 295° West 389 448 31,900 -2,380 Descending Seattle Center
Sat 01:59:23 AM 46.5731 -120.4567 295° West 389 448 29,700 -2,146 Descending Seattle Center
Sat 02:00:25 AM 46.6331 -120.5778 306° West 374 430 27,500 -2,098 Descending Seattle Center
Sat 02:01:26 AM 46.6908 -120.6997 305° West 368 423 25,400 -2,132 Descending Seattle Center
Sat 02:02:26 AM 46.7478 -120.8208 304° West 367 422 23,200 -2,083 Descending Seattle Center
Sat 02:03:27 AM 46.8031 -120.9378 305° West 354 407 21,200 -1,934 Descending Seattle Center
Sat 02:04:27 AM 46.8556 -121.0500 304° West 340 391 19,300 -1,900 Descending Seattle Center
Sat 02:05:27 AM 46.9153 -121.1722 306° West 337 388 17,400 -1,912 Descending Seattle Center
Sat 02:05:58 AM 46.9414 -121.2269 305° West 330 380 16,400 -2,066 Descending Seattle Center
Sat 02:06:28 AM 46.9658 -121.2828 303° West 323 372 15,300 -2,000 Descending Seattle Center
Sat 02:06:40 AM 46.9775 -121.3042 309° West 325 374 15,000 -1,900 Descending Seattle Center
Sat 02:07:28 AM 47.0144 -121.3906 302° West 317 365 13,400 -2,066 Descending Seattle Center
Sat 02:07:41 AM 47.0258 -121.4106 310° West 316 364 12,900 -1,279 Descending Seattle Center
Sat 02:08:29 AM 47.0608 -121.4933 302° West 315 362 12,100 -885 Descending Seattle Center
Sat 02:08:42 AM 47.0733 -121.5144 311° West 306 352 12,000 -200 Descending Seattle Center
Sat 02:09:29 AM 47.1081 -121.5947 302° West 275 316 11,900 -295 Descending Seattle Center
Sat 02:09:43 AM 47.1167 -121.6108 308° West 280 322 11,700 -1,180 Descending Seattle Center
Sat 02:10:30 AM 47.1542 -121.6894 305° West 281 323 10,700 -1,279 Descending Seattle Center
Sat 02:10:44 AM 47.1617 -121.7064 303° West 277 319 10,400 -1,500 Descending Seattle Center
Sat 02:11:30 AM 47.1742 -121.7956 282° West 283 326 9,200 -1,600 Descending Seattle Center
Sat 02:11:44 AM 47.1717 -121.8219 262° West 276 318 8,800 -1,475 Descending Seattle Center
Sat 02:12:31 AM 47.1689 -121.9064 267° West 273 314 7,700 -897 Descending Seattle Center
Sat 02:13:31 AM 47.1642 -122.0097 266° West 257 296 7,200 -595 Descending Seattle Center
Sat 02:14:32 AM 47.1608 -122.0958 267° West 216 249 6,500 -711 Descending Seattle Center
Sat 02:14:47 AM 47.1608 -122.1153 270° West 196 226 6,300 -800 Descending Seattle Center
Sat 02:15:32 AM 47.1719 -122.1692 287° West 190 219 5,700 -787 Descending Seattle Center
Sat 02:15:48 AM 47.1783 -122.1839 303° West 173 199 5,500 -1,100 Descending Seattle Center
Sat 02:16:32 AM 47.2003 -122.2292 306° West 178 205 4,600 -1,200 Descending Seattle Center
Sat 02:16:48 AM 47.2069 -122.2433 305° West 177 204 4,300 -590 Descending Seattle Center
Sat 02:17:33 AM 47.2317 -122.2856 311° West 179 206 4,000 -327 Descending Seattle Center
Sat 02:17:43 AM 47.2378 -122.2947 314° West 179 206 4,000 -500 Level Seattle Center
Sat 02:18:33 AM 47.2775 -122.3128 343° North 180 207 3,500 -590 Descending Seattle Center
Sat 02:18:44 AM 47.2850 -122.3144 351° North 186 214 3,400 -885 Descending Seattle Center
Sat 02:19:34 AM 47.3275 -122.3119 North 181 208 2,600 -984 Descending Seattle Center
Sat 02:19:45 AM 47.3339 -122.3139 348° North 177 204 2,400 -800 Descending Seattle Center
Sat 02:20:34 AM 47.3683 -122.3119 North 146 168 1,800 -727 Descending Seattle Center
Sat 02:20:51 AM 47.3761 -122.3136 352° North 128 147 1,600 -590 Descending Seattle Center
Sat 02:21:35 AM 47.4019 -122.3117 North 125 144 1,200 -689 Descending Seattle Center
Sat 02:21:52 AM 47.4136 -122.3125 357° North 117 135 900 -700 Descending Seattle Center
Sat 02:22:35 AM 47.4386 -122.3119 North 131 151 500 -288 Descending Seattle Center
Sat 02:23:36 AM 47.4733 -122.3125 359° North 132 152 400 -98 Descending Seattle Center
Sat 02:25:00 AM 47.4499 -122.3118 135° Southeast  Level Estimated

Login

Don't have an account? Register now (free) for customized features, flight alerts, and more!